Ana Sayfa
METAR-TAF:

METAR-TAF

Havaalanları :

Tuscaloosa, Alabama, Amerika Birleşik Devletleri

Enlem: 33-12-43N, Boylam: 087-36-57W, yükseklik: 52 m

Güncel hava durumu gözlemi

Rapor saat 16:53 UTC de 31 dakika önce yapıldı.
Rüzgar güneybatıdan 5 kt
Sıcaklık 33°C
Nem 44%
Basınç 1015 hPa
Görüş mesafesi: 16.1 km
Açık gökyüzü

METAR: KTCL 251653Z 22005KT 10SM CLR 33/19 A2997 RMK AO2 SLP147 T03330194

Saat: 12:24 (17:24 UTC)

Tahmin

Rapor saat 11:20 UTC de 6 saat ve 4 dakika önce yapıldı.
Ayın 25'si saat 12 UTC'den ayın 26'si saat 12 UTC'ye kadar geçerli Tahmin
Rüzgar kuzeydan kt
Görüş mesafesi: 10 km
Açık gökyüzü
Ayın 25'si saat 1600 UTC'den
Rüzgar kuzey/kuzeybatıdan 6 kt
Görüş mesafesi: 10 km
5000 ft yükseklikte parçalı bulutlu
Ayın 26'si saat 0100 UTC'den
Rüzgar kuzeydan kt
Görüş mesafesi: 10 km
25000 ft yükseklikte az bulutlu

TAF: KTCL 251120Z 2512/2612 00000KT P6SM SKC FM251600 34006KT P6SM SCT050 FM260100 00000KT P6SM FEW250

4.000'den fazla havaalanı için hava durumu gözlemleri ve tahminleri (METAR ve TAF raporları).

Kullanılabilir istasyonlar harita üzerinde sarı ve kırmızı noktalarla gösterilir.

İstasyonun adını görmek için fareyi noktanın üzerinde gezdirin.

Sonrasında hava gözlem ve tahminlerini görmek için tıklayın.

Haritayı değiştirmek için: yaklaştırmak için siyah artı işaretli yeşil düğmeye ve uzaklaştırmak için de eksi işaretli düğmeye hızla tıklayın; bitişik haritalar için yeşil okları kullanın.


METAR-TAF: